Time;durP1;ratioP1;P1;durP2;ratioP2;P2;SDS_P1;SDS_P2;PMS_P1;PMS_P2;Temp;Humidity;BMP_temperature;BMP_pressure;BME280_temperature;BME280_humidity;BME280_pressure;Samples;Min_cycle;Max_cycle;Signal;HPM_P1;HPM_P2
2021/10/14 00:00:23;;;;;;;;;;;12.20;94.70;;;;;;4334012;33;45746;-88
2021/10/14 00:02:52;;;;;;;;;;;12.20;94.70;;;;;;4333369;33;42887;-88
2021/10/14 00:05:22;;;;;;;;;;;12.20;94.70;;;;;;4333967;33;43985;-88
2021/10/14 00:07:49;;;;;;;;;;;12.20;94.70;;;;;;4333961;33;43765;-88
2021/10/14 00:10:16;;;;;;;;;;;12.20;94.70;;;;;;4346861;33;44890;-89
2021/10/14 00:12:44;;;;;;;;;;;12.20;94.70;;;;;;4333806;33;44537;-88
2021/10/14 00:15:11;;;;;;;;;;;12.20;94.80;;;;;;4346958;33;42998;-88
2021/10/14 00:17:38;;;;;;;;;;;12.20;94.70;;;;;;4333487;33;43477;-89
2021/10/14 00:20:06;;;;;;;;;;;12.20;94.80;;;;;;4333457;33;42810;-89
2021/10/14 00:22:35;;;;;;;;;;;12.20;94.80;;;;;;4334316;33;44093;-88
2021/10/14 00:25:03;;;;;;;;;;;12.20;94.80;;;;;;4346889;33;44688;-88
2021/10/14 00:27:30;;;;;;;;;;;12.20;94.90;;;;;;4333697;33;45735;-88
2021/10/14 00:29:57;;;;;;;;;;;12.10;94.90;;;;;;4333635;33;44172;-87
2021/10/14 00:32:24;;;;;;;;;;;12.10;94.90;;;;;;4334077;33;42699;-87
2021/10/14 00:34:52;;;;;;;;;;;12.10;94.90;;;;;;4346776;33;45768;-88
2021/10/14 00:37:21;;;;;;;;;;;12.10;94.90;;;;;;4333212;33;42143;-88
2021/10/14 00:39:48;;;;;;;;;;;12.10;94.90;;;;;;4333779;33;43993;-88
2021/10/14 00:42:15;;;;;;;;;;;12.10;94.80;;;;;;4333608;33;44455;-87
2021/10/14 00:44:43;;;;;;;;;;;12.10;94.90;;;;;;4333596;33;44003;-87
2021/10/14 00:47:11;;;;;;;;;;;12.10;94.90;;;;;;4333638;33;45598;-88
2021/10/14 00:49:38;;;;;;;;;;;12.10;94.90;;;;;;4333298;33;43377;-88
2021/10/14 00:52:08;;;;;;;;;;;12.10;95.00;;;;;;4333421;33;45027;-88
2021/10/14 00:54:36;;;;;;;;;;;12.00;94.90;;;;;;4333537;33;42890;-88
2021/10/14 00:57:03;;;;;;;;;;;12.00;95.00;;;;;;4346774;33;43245;-88
2021/10/14 00:59:31;;;;;;;;;;;12.00;95.00;;;;;;4333212;33;42671;-88
2021/10/14 01:01:58;;;;;;;;;;;12.00;95.00;;;;;;4345817;33;44829;-88
2021/10/14 01:04:25;;;;;;;;;;;12.00;95.10;;;;;;4333149;33;44215;-88
2021/10/14 01:06:52;;;;;;;;;;;12.00;95.10;;;;;;4332382;33;45619;-88
2021/10/14 01:09:19;;;;;;;;;;;12.00;95.10;;;;;;4333304;33;42953;-88
2021/10/14 01:11:47;;;;;;;;;;;12.00;95.10;;;;;;4332929;33;44437;-88
2021/10/14 01:14:14;;;;;;;;;;;12.00;95.10;;;;;;4345838;33;45146;-88
2021/10/14 01:16:42;;;;;;;;;;;11.90;95.10;;;;;;4333029;33;43882;-88
2021/10/14 01:19:10;;;;;;;;;;;11.90;95.10;;;;;;4346809;33;43848;-87
2021/10/14 01:21:38;;;;;;;;;;;11.90;95.10;;;;;;4332456;33;43005;-88
2021/10/14 01:24:05;;;;;;;;;;;11.90;95.10;;;;;;4346220;33;45941;-88
2021/10/14 01:26:32;;;;;;;;;;;11.90;95.10;;;;;;4345752;33;45980;-87
2021/10/14 01:29:00;;;;;;;;;;;12.00;95.10;;;;;;4333554;33;45430;-87
2021/10/14 01:31:28;;;;;;;;;;;11.90;95.10;;;;;;4333027;33;44098;-88
2021/10/14 01:33:55;;;;;;;;;;;11.90;95.10;;;;;;4332979;33;42763;-88
2021/10/14 01:36:23;;;;;;;;;;;11.90;95.10;;;;;;4332950;33;42387;-87
2021/10/14 01:38:50;;;;;;;;;;;11.90;95.10;;;;;;4346332;33;44169;-88
2021/10/14 01:41:17;;;;;;;;;;;11.90;95.10;;;;;;4333296;33;44954;-87
2021/10/14 01:43:45;;;;;;;;;;;11.90;95.10;;;;;;4346370;33;44857;-88
2021/10/14 01:46:12;;;;;;;;;;;11.90;95.10;;;;;;4332947;33;43297;-87
2021/10/14 01:48:40;;;;;;;;;;;11.90;95.10;;;;;;4333208;33;45504;-87
2021/10/14 01:51:08;;;;;;;;;;;11.90;95.10;;;;;;4332755;33;45755;-87
2021/10/14 01:53:35;;;;;;;;;;;11.90;95.10;;;;;;4346114;33;44160;-89
2021/10/14 01:56:03;;;;;;;;;;;11.90;95.10;;;;;;4333011;33;45078;-88
2021/10/14 01:58:33;;;;;;;;;;;11.90;95.10;;;;;;4345535;33;43470;-88
2021/10/14 02:01:00;;;;;;;;;;;11.90;95.10;;;;;;4332359;33;44449;-87
2021/10/14 02:03:30;;;;;;;;;;;11.80;95.10;;;;;;4345302;33;43032;-87
2021/10/14 02:05:57;;;;;;;;;;;11.90;95.10;;;;;;4332123;33;44833;-88
2021/10/14 02:08:24;;;;;;;;;;;11.90;95.10;;;;;;4332254;33;42484;-87
2021/10/14 02:10:57;;;;;;;;;;;11.90;95.10;;;;;;4331922;33;44821;-88
2021/10/14 02:13:24;;;;;;;;;;;11.90;95.10;;;;;;4332028;33;42758;-88
2021/10/14 02:15:51;;;;;;;;;;;11.90;95.10;;;;;;4332356;33;45755;-87
2021/10/14 02:18:18;;;;;;;;;;;11.80;95.10;;;;;;4332133;33;43471;-87
2021/10/14 02:20:45;;;;;;;;;;;11.80;95.10;;;;;;4345344;33;45722;-87
2021/10/14 02:23:12;;;;;;;;;;;11.80;95.10;;;;;;4331961;33;42133;-87
2021/10/14 02:25:40;;;;;;;;;;;11.80;95.10;;;;;;4332556;33;44633;-88
2021/10/14 02:28:07;;;;;;;;;;;11.80;95.10;;;;;;4332300;33;43474;-88
2021/10/14 02:30:35;;;;;;;;;;;11.80;95.10;;;;;;4332319;33;45882;-87
2021/10/14 02:33:02;;;;;;;;;;;11.80;95.10;;;;;;4331823;33;43816;-88
2021/10/14 02:35:30;;;;;;;;;;;11.80;95.10;;;;;;4332074;33;43794;-88
2021/10/14 02:37:57;;;;;;;;;;;11.80;95.10;;;;;;4332688;33;46138;-88
2021/10/14 02:40:24;;;;;;;;;;;11.70;95.10;;;;;;4332630;33;43486;-88
2021/10/14 02:42:54;;;;;;;;;;;11.70;95.10;;;;;;4345456;33;43962;-88
2021/10/14 02:45:21;;;;;;;;;;;11.80;95.20;;;;;;4345451;33;44654;-88
2021/10/14 02:47:48;;;;;;;;;;;11.70;95.20;;;;;;4345330;33;44778;-88
2021/10/14 02:50:15;;;;;;;;;;;11.70;95.20;;;;;;4332369;33;45716;-88
2021/10/14 02:52:42;;;;;;;;;;;11.70;95.20;;;;;;4332466;33;44705;-87
2021/10/14 02:55:09;;;;;;;;;;;11.70;95.20;;;;;;4331887;33;45703;-88
2021/10/14 02:57:36;;;;;;;;;;;11.70;95.20;;;;;;4331920;33;45075;-87
2021/10/14 03:00:06;;;;;;;;;;;11.70;95.10;;;;;;4331777;33;43039;-88
2021/10/14 03:02:33;;;;;;;;;;;11.70;95.10;;;;;;4331235;33;44221;-88
2021/10/14 03:05:01;;;;;;;;;;;11.70;95.10;;;;;;4331797;33;42878;-88
2021/10/14 03:07:29;;;;;;;;;;;11.70;95.10;;;;;;4331349;33;44845;-88
2021/10/14 03:09:56;;;;;;;;;;;11.80;95.10;;;;;;4332067;33;44832;-88
2021/10/14 03:12:26;;;;;;;;;;;11.70;95.10;;;;;;4331665;33;45326;-88
2021/10/14 03:14:53;;;;;;;;;;;11.70;95.00;;;;;;4345546;33;44292;-88
2021/10/14 03:17:20;;;;;;;;;;;11.70;95.00;;;;;;4332066;33;45780;-87
2021/10/14 03:19:47;;;;;;;;;;;11.70;95.00;;;;;;4331413;33;44273;-88
2021/10/14 03:22:14;;;;;;;;;;;11.70;95.00;;;;;;4344690;33;44778;-88
2021/10/14 03:24:49;;;;;;;;;;;11.70;95.00;;;;;;4332764;33;44324;-88
2021/10/14 03:27:16;;;;;;;;;;;11.70;95.00;;;;;;4345090;33;43989;-88
2021/10/14 03:29:43;;;;;;;;;;;11.70;94.90;;;;;;4332535;33;45765;-87
2021/10/14 03:32:10;;;;;;;;;;;11.70;94.90;;;;;;4334439;33;44848;-88
2021/10/14 03:34:37;;;;;;;;;;;11.70;94.90;;;;;;4347551;33;44773;-89
2021/10/14 03:37:04;;;;;;;;;;;11.70;94.90;;;;;;4334472;33;44342;-89
2021/10/14 03:39:32;;;;;;;;;;;11.70;94.90;;;;;;4334610;33;45839;-89
2021/10/14 03:41:59;;;;;;;;;;;11.70;94.90;;;;;;4334825;33;44628;-89
2021/10/14 03:44:26;;;;;;;;;;;11.70;94.80;;;;;;4347987;33;45129;-88
2021/10/14 03:46:53;;;;;;;;;;;11.70;94.80;;;;;;4347826;33;44366;-89
2021/10/14 03:49:20;;;;;;;;;;;11.70;94.80;;;;;;4334861;33;44775;-89
2021/10/14 03:51:47;;;;;;;;;;;11.70;94.80;;;;;;4334862;33;43842;-89
2021/10/14 03:54:17;;;;;;;;;;;11.70;94.80;;;;;;4334956;33;44745;-88
2021/10/14 03:56:44;;;;;;;;;;;11.70;94.80;;;;;;4335175;33;45935;-88
2021/10/14 03:59:11;;;;;;;;;;;11.70;94.80;;;;;;4347877;33;44773;-88
2021/10/14 04:01:38;;;;;;;;;;;11.70;94.80;;;;;;4347571;33;44817;-89
2021/10/14 04:04:05;;;;;;;;;;;11.70;94.70;;;;;;4334457;33;45028;-88
2021/10/14 04:06:32;;;;;;;;;;;11.70;94.80;;;;;;4346686;33;44030;-88
2021/10/14 04:09:00;;;;;;;;;;;11.70;94.70;;;;;;4347337;33;43667;-88
2021/10/14 04:11:27;;;;;;;;;;;11.70;94.70;;;;;;4347866;33;44464;-88
2021/10/14 04:13:54;;;;;;;;;;;11.70;94.70;;;;;;4347433;33;43240;-88
2021/10/14 04:16:21;;;;;;;;;;;11.70;94.70;;;;;;4334842;33;45161;-88
2021/10/14 04:18:48;;;;;;;;;;;11.70;94.70;;;;;;4347408;33;43454;-89
2021/10/14 04:21:15;;;;;;;;;;;11.70;94.70;;;;;;4334048;33;44283;-89
2021/10/14 04:23:44;;;;;;;;;;;11.70;94.70;;;;;;4335006;33;44653;-89
2021/10/14 04:26:12;;;;;;;;;;;11.60;94.70;;;;;;4335524;33;44973;-88
2021/10/14 04:28:39;;;;;;;;;;;11.60;94.70;;;;;;4335582;33;43346;-89
2021/10/14 04:31:07;;;;;;;;;;;11.60;94.70;;;;;;4348173;33;43414;-88
2021/10/14 04:33:36;;;;;;;;;;;11.60;94.70;;;;;;4334451;33;44299;-89
2021/10/14 04:36:04;;;;;;;;;;;11.70;94.70;;;;;;4348772;33;43343;-88
2021/10/14 04:38:32;;;;;;;;;;;11.70;94.60;;;;;;4347735;33;45474;-88
2021/10/14 04:40:59;;;;;;;;;;;11.70;94.60;;;;;;4333372;33;43482;-88
2021/10/14 04:43:26;;;;;;;;;;;11.70;94.60;;;;;;4333877;33;44173;-89
2021/10/14 04:45:53;;;;;;;;;;;11.70;94.60;;;;;;4335097;33;45274;-89
2021/10/14 04:48:20;;;;;;;;;;;11.70;94.90;;;;;;4347256;33;44819;-89
2021/10/14 04:50:48;;;;;;;;;;;11.60;94.50;;;;;;4347677;33;44159;-89
2021/10/14 04:53:15;;;;;;;;;;;11.60;94.50;;;;;;4333529;33;45716;-87
2021/10/14 04:55:42;;;;;;;;;;;11.60;94.50;;;;;;4334458;33;44704;-89
2021/10/14 04:58:10;;;;;;;;;;;11.60;94.50;;;;;;4333526;33;45492;-89
2021/10/14 05:00:37;;;;;;;;;;;11.60;94.50;;;;;;4334899;33;44922;-87
2021/10/14 05:03:04;;;;;;;;;;;11.60;94.60;;;;;;4347273;33;43301;-89
2021/10/14 05:05:37;;;;;;;;;;;11.60;94.60;;;;;;4334999;33;43470;-89
2021/10/14 05:08:06;;;;;;;;;;;11.60;94.60;;;;;;4333593;33;45794;-89
2021/10/14 05:10:33;;;;;;;;;;;11.60;94.60;;;;;;4347319;33;45949;-89
2021/10/14 05:13:00;;;;;;;;;;;11.60;94.60;;;;;;4346911;33;44075;-89
2021/10/14 05:15:28;;;;;;;;;;;11.60;94.60;;;;;;4333966;33;45126;-88
2021/10/14 05:17:55;;;;;;;;;;;11.60;94.60;;;;;;4347829;33;43269;-88
2021/10/14 05:20:22;;;;;;;;;;;11.50;94.60;;;;;;4346974;33;44498;-90
2021/10/14 05:22:49;;;;;;;;;;;11.50;94.60;;;;;;4333909;33;43482;-89
2021/10/14 05:25:16;;;;;;;;;;;11.50;94.60;;;;;;4333537;33;45622;-88
2021/10/14 05:27:43;;;;;;;;;;;11.50;94.60;;;;;;4333167;33;43518;-89
2021/10/14 05:30:11;;;;;;;;;;;11.50;94.60;;;;;;4333252;33;43044;-89
2021/10/14 05:32:43;;;;;;;;;;;11.50;94.60;;;;;;4333607;33;43763;-88
2021/10/14 05:35:30;;;;;;;;;;;11.50;94.60;;;;;;4335611;33;46435;-88
2021/10/14 05:37:58;;;;;;;;;;;11.50;94.60;;;;;;4346008;33;43472;-88
2021/10/14 05:40:26;;;;;;;;;;;11.50;94.60;;;;;;4333192;33;44063;-89
2021/10/14 05:42:55;;;;;;;;;;;11.50;94.60;;;;;;4345945;33;44774;-89
2021/10/14 05:45:22;;;;;;;;;;;11.40;94.70;;;;;;4345868;33;44314;-88
2021/10/14 05:47:49;;;;;;;;;;;11.40;94.70;;;;;;4332006;33;43262;-89
2021/10/14 05:50:16;;;;;;;;;;;11.40;94.70;;;;;;4332188;33;43422;-87
2021/10/14 05:52:44;;;;;;;;;;;11.40;94.70;;;;;;4332110;33;43417;-87
2021/10/14 05:55:11;;;;;;;;;;;11.40;94.70;;;;;;4332075;33;44306;-88
2021/10/14 05:57:38;;;;;;;;;;;11.40;94.70;;;;;;4345081;33;44783;-88
2021/10/14 06:00:05;;;;;;;;;;;11.40;94.70;;;;;;4345481;33;43504;-88
2021/10/14 06:02:33;;;;;;;;;;;11.40;94.80;;;;;;4344930;33;43086;-88
2021/10/14 06:05:02;;;;;;;;;;;11.40;94.70;;;;;;4332265;33;43554;-88
2021/10/14 06:07:30;;;;;;;;;;;11.40;94.80;;;;;;4345267;33;43920;-89
2021/10/14 06:09:57;;;;;;;;;;;11.40;94.80;;;;;;4345341;33;45921;-89
2021/10/14 06:12:24;;;;;;;;;;;11.40;94.80;;;;;;4345260;33;43922;-88
2021/10/14 06:14:51;;;;;;;;;;;11.40;94.80;;;;;;4332294;33;45705;-89
2021/10/14 06:17:18;;;;;;;;;;;11.40;94.90;;;;;;4331758;33;45873;-87
2021/10/14 06:19:47;;;;;;;;;;;11.40;94.80;;;;;;4345729;33;45750;-89
2021/10/14 06:22:17;;;;;;;;;;;11.30;94.80;;;;;;4344812;33;45784;-88
2021/10/14 06:24:47;;;;;;;;;;;11.40;94.90;;;;;;4332380;33;45263;-89
2021/10/14 06:27:14;;;;;;;;;;;11.40;94.90;;;;;;4332081;33;44776;-89
2021/10/14 06:29:44;;;;;;;;;;;11.40;94.90;;;;;;4332359;33;44777;-87
2021/10/14 06:32:15;;;;;;;;;;;11.30;94.80;;;;;;4345013;33;43296;-88
2021/10/14 06:34:43;;;;;;;;;;;11.40;94.80;;;;;;4345199;33;44790;-88
2021/10/14 06:37:13;;;;;;;;;;;11.40;94.90;;;;;;4320005;33;43420;-88
2021/10/14 06:39:40;;;;;;;;;;;11.40;94.90;;;;;;4331573;33;44999;-89
2021/10/14 06:42:07;;;;;;;;;;;11.40;94.90;;;;;;4331732;33;44647;-89
2021/10/14 06:44:34;;;;;;;;;;;11.30;94.80;;;;;;4331657;33;45407;-89
2021/10/14 06:47:02;;;;;;;;;;;11.40;94.90;;;;;;4344821;33;44420;-89
2021/10/14 06:49:29;;;;;;;;;;;11.30;94.80;;;;;;4332311;33;44071;-88
2021/10/14 06:51:59;;;;;;;;;;;11.30;94.80;;;;;;4332253;33;44890;-88
2021/10/14 06:54:27;;;;;;;;;;;11.30;95.20;;;;;;4333163;33;44838;-88
2021/10/14 06:56:54;;;;;;;;;;;11.30;94.90;;;;;;4333965;33;44844;-79
2021/10/14 06:59:24;;;;;;;;;;;11.30;94.80;;;;;;4334490;33;22001;-85
2021/10/14 07:01:51;;;;;;;;;;;11.30;94.80;;;;;;4344447;33;44130;-86
2021/10/14 07:04:18;;;;;;;;;;;11.40;94.80;;;;;;4331611;33;44902;-85
2021/10/14 07:06:45;;;;;;;;;;;11.40;94.90;;;;;;4347792;33;45752;-85
2021/10/14 07:09:17;;;;;;;;;;;11.40;94.90;;;;;;4334544;33;43472;-86
2021/10/14 07:11:52;;;;;;;;;;;11.30;94.80;;;;;;4334709;33;43662;-85
2021/10/14 07:14:20;;;;;;;;;;;11.30;94.90;;;;;;4347477;33;43836;-84
2021/10/14 07:16:47;;;;;;;;;;;11.30;94.90;;;;;;4334656;33;43173;-84
2021/10/14 07:19:17;;;;;;;;;;;11.30;94.80;;;;;;4334125;33;43931;-85
2021/10/14 07:21:44;;;;;;;;;;;11.30;94.80;;;;;;4334335;33;42874;-85
2021/10/14 07:24:16;;;;;;;;;;;11.30;94.80;;;;;;4334281;33;46107;-85
2021/10/14 07:26:45;;;;;;;;;;;11.30;94.90;;;;;;4334353;33;44324;-86
2021/10/14 07:29:18;;;;;;;;;;;11.30;94.90;;;;;;4334167;33;45035;-87
2021/10/14 07:31:45;;;;;;;;;;;11.30;94.90;;;;;;4347612;33;43548;-86
2021/10/14 07:34:15;;;;;;;;;;;11.30;95.20;;;;;;4333648;33;45892;-87
2021/10/14 07:36:44;;;;;;;;;;;11.30;94.90;;;;;;4334112;33;45269;-87
2021/10/14 07:39:19;;;;;;;;;;;11.30;94.90;;;;;;4334845;33;43301;-87
2021/10/14 07:41:46;;;;;;;;;;;11.30;94.90;;;;;;4347615;33;44864;-86
2021/10/14 07:44:22;;;;;;;;;;;11.30;94.90;;;;;;4347211;33;45091;-86
2021/10/14 07:46:49;;;;;;;;;;;11.30;94.90;;;;;;4333994;33;46003;-86
2021/10/14 07:49:21;;;;;;;;;;;11.30;94.80;;;;;;4333769;33;43536;-87
2021/10/14 07:51:53;;;;;;;;;;;11.30;94.80;;;;;;4333613;33;44404;-87
2021/10/14 07:54:24;;;;;;;;;;;11.30;94.80;;;;;;4333783;33;43604;-86
2021/10/14 07:56:51;;;;;;;;;;;11.30;94.90;;;;;;4334010;33;45596;-85
2021/10/14 07:59:29;;;;;;;;;;;11.30;94.90;;;;;;4334147;33;44737;-87
2021/10/14 08:02:02;;;;;;;;;;;11.30;94.90;;;;;;4333725;33;43474;-87
2021/10/14 08:04:34;;;;;;;;;;;11.30;94.90;;;;;;4347307;33;44052;-86
2021/10/14 08:07:01;;;;;;;;;;;11.40;94.90;;;;;;4334132;33;45242;-86
2021/10/14 08:09:32;;;;;;;;;;;11.30;94.90;;;;;;4347122;33;46103;-87
2021/10/14 08:11:59;;;;;;;;;;;11.30;94.90;;;;;;4346832;33;45728;-86
2021/10/14 08:14:29;;;;;;;;;;;11.30;94.90;;;;;;4346423;33;46162;-87
2021/10/14 08:17:01;;;;;;;;;;;11.40;94.90;;;;;;4333653;33;45809;-87
2021/10/14 08:19:31;;;;;;;;;;;11.40;94.90;;;;;;4333456;33;44975;-87
2021/10/14 08:22:04;;;;;;;;;;;11.40;94.90;;;;;;4332968;33;44668;-86
2021/10/14 08:24:31;;;;;;;;;;;11.40;94.90;;;;;;4346716;33;44121;-87
2021/10/14 08:27:04;;;;;;;;;;;11.40;94.90;;;;;;4333341;33;43954;-87
2021/10/14 08:29:36;;;;;;;;;;;11.40;94.90;;;;;;4333115;33;44206;-87
2021/10/14 08:32:04;;;;;;;;;;;11.40;94.90;;;;;;4333602;33;44616;-87
2021/10/14 08:34:31;;;;;;;;;;;11.40;94.90;;;;;;4333275;33;45125;-86
2021/10/14 08:36:58;;;;;;;;;;;11.40;94.90;;;;;;4332768;33;45185;-86
2021/10/14 08:39:30;;;;;;;;;;;11.40;94.90;;;;;;4333542;33;44325;-87
2021/10/14 08:42:03;;;;;;;;;;;11.40;94.90;;;;;;4332719;33;45667;-86
2021/10/14 08:44:32;;;;;;;;;;;11.40;94.90;;;;;;4333166;33;44546;-86
2021/10/14 08:46:59;;;;;;;;;;;11.50;95.00;;;;;;4332748;33;44705;-86
2021/10/14 08:49:32;;;;;;;;;;;11.50;95.00;;;;;;4333481;33;44105;-87
2021/10/14 08:52:02;;;;;;;;;;;11.50;95.00;;;;;;4332729;33;44289;-87
2021/10/14 08:54:29;;;;;;;;;;;11.50;95.00;;;;;;4346260;33;44250;-87
2021/10/14 08:57:00;;;;;;;;;;;11.50;94.90;;;;;;4346401;33;44052;-86
2021/10/14 08:59:29;;;;;;;;;;;11.50;94.90;;;;;;4334366;33;20008;-88
2021/10/14 09:02:10;;;;;;;;;;;11.60;94.90;;;;;;4333660;33;20095;-87
2021/10/14 09:04:59;;;;;;;;;;;11.60;95.00;;;;;;4332882;33;46089;-87
2021/10/14 09:07:32;;;;;;;;;;;11.60;95.00;;;;;;4332953;33;44263;-86
2021/10/14 09:10:01;;;;;;;;;;;11.60;95.00;;;;;;4346075;33;42854;-86
2021/10/14 09:12:35;;;;;;;;;;;11.70;95.00;;;;;;4332660;33;42984;-86
2021/10/14 09:15:11;;;;;;;;;;;11.70;95.00;;;;;;4332931;33;44790;-88
2021/10/14 09:17:38;;;;;;;;;;;11.70;95.00;;;;;;4346231;33;42850;-87
2021/10/14 09:20:21;;;;;;;;;;;11.80;95.00;;;;;;4332598;33;45501;-86
2021/10/14 09:22:58;;;;;;;;;;;11.80;95.00;;;;;;4332891;33;44466;-87
2021/10/14 09:25:35;;;;;;;;;;;11.80;95.10;;;;;;4332665;33;44691;-87
2021/10/14 09:28:10;;;;;;;;;;;11.90;95.10;;;;;;4331959;33;43920;-86
2021/10/14 09:31:01;;;;;;;;;;;11.90;95.00;;;;;;4332582;33;45181;-87
2021/10/14 09:33:42;;;;;;;;;;;11.90;95.00;;;;;;4339972;33;21662;-86
2021/10/14 09:36:22;;;;;;;;;;;12.00;95.10;;;;;;4332669;33;43174;-86
2021/10/14 09:38:54;;;;;;;;;;;12.00;95.10;;;;;;4345903;33;43974;-87
2021/10/14 09:41:22;;;;;;;;;;;12.00;95.00;;;;;;4345705;33;44812;-87
2021/10/14 09:43:51;;;;;;;;;;;12.00;95.00;;;;;;4332351;33;44459;-87
2021/10/14 09:46:35;;;;;;;;;;;12.10;95.00;;;;;;4332360;33;46012;-87
2021/10/14 09:49:03;;;;;;;;;;;12.10;95.00;;;;;;4332595;33;44105;-87
2021/10/14 09:51:31;;;;;;;;;;;12.10;95.10;;;;;;4332406;33;45703;-87
2021/10/14 09:53:59;;;;;;;;;;;12.20;95.10;;;;;;4332327;33;44981;-87
2021/10/14 09:56:34;;;;;;;;;;;12.20;95.00;;;;;;4332316;33;44764;-87
2021/10/14 09:59:04;;;;;;;;;;;12.20;95.10;;;;;;4345499;33;44441;-87
2021/10/14 10:01:35;;;;;;;;;;;12.20;95.00;;;;;;4331552;33;45469;-87
2021/10/14 10:04:06;;;;;;;;;;;12.20;95.10;;;;;;4333300;33;20456;-87
2021/10/14 10:06:34;;;;;;;;;;;12.20;95.10;;;;;;4332250;33;42840;-87
2021/10/14 10:09:30;;;;;;;;;;;12.30;95.10;;;;;;4345464;33;44618;-88
2021/10/14 10:11:59;;;;;;;;;;;12.30;95.10;;;;;;4332426;33;44263;-87
2021/10/14 10:14:27;;;;;;;;;;;12.30;95.20;;;;;;4344864;33;44104;-87
2021/10/14 10:17:06;;;;;;;;;;;12.30;95.10;;;;;;4345126;33;44876;-88
2021/10/14 10:19:48;;;;;;;;;;;12.30;95.20;;;;;;4331643;33;43963;-87
2021/10/14 10:22:35;;;;;;;;;;;12.40;95.30;;;;;;4332047;33;43115;-87
2021/10/14 10:25:15;;;;;;;;;;;12.40;95.40;;;;;;4332089;33;44199;-88
2021/10/14 10:27:42;;;;;;;;;;;12.40;95.20;;;;;;4332277;33;45103;-87
2021/10/14 10:30:11;;;;;;;;;;;12.50;95.30;;;;;;4331779;33;44084;-87
2021/10/14 10:32:41;;;;;;;;;;;12.50;95.30;;;;;;4331387;33;44879;-87
2021/10/14 10:35:11;;;;;;;;;;;12.60;95.40;;;;;;4332640;33;20044;-88
2021/10/14 10:37:43;;;;;;;;;;;12.70;95.50;;;;;;4332263;33;44269;-87
2021/10/14 10:40:24;;;;;;;;;;;12.70;95.30;;;;;;4333947;33;45000;-88
2021/10/14 10:42:51;;;;;;;;;;;12.80;95.40;;;;;;4335652;33;43479;-88
2021/10/14 10:45:22;;;;;;;;;;;12.90;95.30;;;;;;4334851;33;42743;-88
2021/10/14 10:47:57;;;;;;;;;;;12.90;95.20;;;;;;4334928;33;45807;-88
2021/10/14 10:50:25;;;;;;;;;;;12.90;95.20;;;;;;4334856;33;45457;-87
2021/10/14 10:53:06;;;;;;;;;;;12.90;95.10;;;;;;4348171;33;45384;-88
2021/10/14 10:55:45;;;;;;;;;;;13.00;95.10;;;;;;4334978;33;46039;-89
2021/10/14 10:58:21;;;;;;;;;;;13.00;95.50;;;;;;4334445;33;46063;-88
2021/10/14 11:00:51;;;;;;;;;;;13.00;95.20;;;;;;4335280;33;44144;-89
2021/10/14 11:03:22;;;;;;;;;;;13.00;95.20;;;;;;4334766;33;45052;-89
2021/10/14 11:06:00;;;;;;;;;;;13.00;95.30;;;;;;4348250;33;45855;-89
2021/10/14 11:08:30;;;;;;;;;;;13.10;95.30;;;;;;4334791;33;43491;-89
2021/10/14 11:11:23;;;;;;;;;;;13.10;95.30;;;;;;4334260;33;44838;-89
2021/10/14 11:13:52;;;;;;;;;;;13.10;95.30;;;;;;4346002;33;43009;-90
2021/10/14 11:16:29;;;;;;;;;;;13.10;95.20;;;;;;4335080;33;42965;-88
2021/10/14 11:18:58;;;;;;;;;;;13.10;95.30;;;;;;4334444;33;43627;-88
2021/10/14 11:21:36;;;;;;;;;;;13.10;95.30;;;;;;4336186;33;43086;-89
2021/10/14 11:24:04;;;;;;;;;;;13.10;95.30;;;;;;4334836;33;45050;-89
2021/10/14 11:26:35;;;;;;;;;;;13.10;95.30;;;;;;4334889;33;44682;-90
2021/10/14 11:29:02;;;;;;;;;;;13.10;95.30;;;;;;4348152;33;45435;-89
2021/10/14 11:31:30;;;;;;;;;;;13.10;95.30;;;;;;4334856;33;45665;-89
2021/10/14 11:34:16;;;;;;;;;;;13.20;95.30;;;;;;4347864;33;44094;-88
2021/10/14 11:36:52;;;;;;;;;;;13.20;95.40;;;;;;4335741;33;21599;-89
2021/10/14 11:39:32;;;;;;;;;;;13.20;95.30;;;;;;4335185;33;43584;-88
2021/10/14 11:42:01;;;;;;;;;;;13.20;95.40;;;;;;4335136;33;44775;-88
2021/10/14 11:44:29;;;;;;;;;;;13.20;95.40;;;;;;4348120;33;45903;-89
2021/10/14 11:46:57;;;;;;;;;;;13.20;95.40;;;;;;4335209;33;46096;-89
2021/10/14 11:49:28;;;;;;;;;;;13.20;95.40;;;;;;4334993;33;45883;-89
2021/10/14 11:51:59;;;;;;;;;;;13.20;95.40;;;;;;4333906;33;43121;-89
2021/10/14 11:54:26;;;;;;;;;;;13.20;95.40;;;;;;4347744;33;44195;-88
2021/10/14 11:56:54;;;;;;;;;;;13.30;95.40;;;;;;4347911;33;44390;-89
2021/10/14 11:59:32;;;;;;;;;;;13.30;95.40;;;;;;4347201;33;45167;-89
2021/10/14 12:02:03;;;;;;;;;;;13.30;95.40;;;;;;4333895;33;43503;-91
2021/10/14 12:04:38;;;;;;;;;;;13.30;95.50;;;;;;4334372;33;43246;-91
2021/10/14 12:07:05;;;;;;;;;;;13.30;95.50;;;;;;4335240;33;20002;-88
2021/10/14 12:09:42;;;;;;;;;;;13.40;95.50;;;;;;4334695;33;44030;-89
2021/10/14 12:12:12;;;;;;;;;;;13.40;95.50;;;;;;4347640;33;43277;-89
2021/10/14 12:14:42;;;;;;;;;;;13.40;95.40;;;;;;4347479;33;43910;-89
2021/10/14 12:17:12;;;;;;;;;;;13.40;95.50;;;;;;4334085;33;45502;-88
2021/10/14 12:19:42;;;;;;;;;;;13.40;95.50;;;;;;4334159;33;45707;-89
2021/10/14 12:22:11;;;;;;;;;;;13.50;95.50;;;;;;4334238;33;44281;-90
2021/10/14 12:24:50;;;;;;;;;;;13.50;95.50;;;;;;4334435;33;44917;-89
2021/10/14 12:27:20;;;;;;;;;;;13.50;95.50;;;;;;4347381;33;46052;-90
2021/10/14 12:29:52;;;;;;;;;;;13.50;95.50;;;;;;4334254;33;44032;-87
2021/10/14 12:32:20;;;;;;;;;;;13.50;95.50;;;;;;4334272;33;43746;-89
2021/10/14 12:34:56;;;;;;;;;;;13.60;95.50;;;;;;4334435;33;44268;-88
2021/10/14 12:37:31;;;;;;;;;;;13.60;95.50;;;;;;4335161;33;20068;-89
2021/10/14 12:40:08;;;;;;;;;;;13.60;95.50;;;;;;4333792;33;44189;-90
2021/10/14 12:42:45;;;;;;;;;;;13.70;95.50;;;;;;4333990;33;43384;-89
2021/10/14 12:45:14;;;;;;;;;;;13.70;95.50;;;;;;4333910;33;43928;-89
2021/10/14 12:47:56;;;;;;;;;;;13.70;95.40;;;;;;4333356;33;43116;-90
2021/10/14 12:53:11;;;;;;;;;;;13.70;95.40;;;;;;4346879;33;43479;-89
2021/10/14 12:55:55;;;;;;;;;;;13.70;95.40;;;;;;4334182;33;44779;-89
2021/10/14 12:58:53;;;;;;;;;;;13.70;95.40;;;;;;4347044;33;44977;-89
2021/10/14 13:01:20;;;;;;;;;;;13.80;95.50;;;;;;4333201;33;45128;-89
2021/10/14 13:03:54;;;;;;;;;;;13.70;95.40;;;;;;4333274;33;45698;-89
2021/10/14 13:06:22;;;;;;;;;;;13.80;95.40;;;;;;4346634;33;46089;-89
2021/10/14 13:08:56;;;;;;;;;;;13.80;95.40;;;;;;4334628;33;20010;-90
2021/10/14 13:11:36;;;;;;;;;;;13.80;95.50;;;;;;4346678;33;45740;-89
2021/10/14 13:14:12;;;;;;;;;;;13.80;95.50;;;;;;4333410;33;43820;-89
2021/10/14 13:16:39;;;;;;;;;;;13.80;95.50;;;;;;4333587;33;44945;-89
2021/10/14 13:19:14;;;;;;;;;;;13.80;95.50;;;;;;4333544;33;44726;-89
2021/10/14 13:21:42;;;;;;;;;;;13.80;95.50;;;;;;4333437;33;43083;-90
2021/10/14 13:24:18;;;;;;;;;;;13.80;95.50;;;;;;4333551;33;43667;-89
2021/10/14 13:26:45;;;;;;;;;;;13.80;95.50;;;;;;4346802;33;43198;-90
2021/10/14 13:29:15;;;;;;;;;;;13.80;95.50;;;;;;4333544;33;44743;-89
2021/10/14 13:31:50;;;;;;;;;;;13.90;95.50;;;;;;4332573;33;43792;-89
2021/10/14 13:34:25;;;;;;;;;;;13.90;95.50;;;;;;4332999;33;44473;-90
2021/10/14 13:37:09;;;;;;;;;;;13.90;95.40;;;;;;4333345;33;45215;-90
2021/10/14 13:39:45;;;;;;;;;;;13.90;95.40;;;;;;4334136;33;20092;-89
2021/10/14 13:42:20;;;;;;;;;;;13.90;95.40;;;;;;4333042;33;45264;-90
2021/10/14 13:44:55;;;;;;;;;;;13.90;95.40;;;;;;4333221;33;43860;-90
2021/10/14 13:47:30;;;;;;;;;;;13.90;95.40;;;;;;4332648;33;44129;-90
2021/10/14 13:50:03;;;;;;;;;;;13.90;95.40;;;;;;4332822;33;45071;-90
2021/10/14 13:52:38;;;;;;;;;;;13.90;95.40;;;;;;4346634;33;45645;-90
2021/10/14 13:55:17;;;;;;;;;;;13.90;95.40;;;;;;4334525;33;42727;-90
2021/10/14 13:57:44;;;;;;;;;;;13.90;95.40;;;;;;4333792;33;44301;-90
2021/10/14 14:00:17;;;;;;;;;;;13.90;95.40;;;;;;4332954;33;46034;-91
2021/10/14 14:02:44;;;;;;;;;;;13.90;95.40;;;;;;4332457;33;43882;-89
2021/10/14 14:05:17;;;;;;;;;;;13.90;95.30;;;;;;4346325;33;43016;-90
2021/10/14 14:07:44;;;;;;;;;;;13.90;95.40;;;;;;4346843;33;45285;-90
2021/10/14 14:10:16;;;;;;;;;;;13.90;95.40;;;;;;4334337;33;20011;-89
2021/10/14 14:12:48;;;;;;;;;;;13.90;95.40;;;;;;4333612;33;43937;-90
2021/10/14 14:15:20;;;;;;;;;;;13.90;95.40;;;;;;4332729;33;45733;-90
2021/10/14 14:17:53;;;;;;;;;;;13.90;95.30;;;;;;4347046;33;43231;-90
2021/10/14 14:20:24;;;;;;;;;;;13.90;95.30;;;;;;4333698;33;44341;-90
2021/10/14 14:22:56;;;;;;;;;;;13.90;95.30;;;;;;4333354;33;43191;-90
2021/10/14 14:25:28;;;;;;;;;;;13.90;95.30;;;;;;4333235;33;45739;-90
2021/10/14 14:28:00;;;;;;;;;;;13.90;95.30;;;;;;4333192;33;44058;-90
2021/10/14 14:30:30;;;;;;;;;;;13.90;95.30;;;;;;4332436;33;42855;-89
2021/10/14 14:32:57;;;;;;;;;;;13.90;95.30;;;;;;4332049;33;43862;-89
2021/10/14 14:35:33;;;;;;;;;;;13.90;95.20;;;;;;4332192;33;43199;-90